createdAt,value
2023-03-15T00:01:08.205Z,408.68
2023-03-15T00:06:08.164Z,408.68
2023-03-15T00:11:08.051Z,410.17
2023-03-15T00:16:08.085Z,409.67
2023-03-15T00:21:07.948Z,412.43
2023-03-15T00:26:07.886Z,413.44
2023-03-15T00:31:07.867Z,414.20
2023-03-15T00:36:07.807Z,414.97
2023-03-15T00:41:07.683Z,419.10
2023-03-15T00:46:07.620Z,415.99
2023-03-15T00:51:07.555Z,418.06
2023-03-15T00:56:07.506Z,423.04
2023-03-15T01:01:07.420Z,422.77
2023-03-15T01:06:34.368Z,426.52
2023-03-15T01:11:26.798Z,425.17
2023-03-15T01:16:26.769Z,427.87
2023-03-15T01:21:26.663Z,428.96
2023-03-15T01:26:26.578Z,433.65
2023-03-15T01:31:26.575Z,433.37
2023-03-15T01:36:26.458Z,436.74
2023-03-15T01:41:26.376Z,439.30
2023-03-15T01:46:26.435Z,440.16
2023-03-15T01:51:26.261Z,438.73
2023-03-15T01:56:26.212Z,439.01
2023-03-15T02:01:26.157Z,438.44
2023-03-15T02:06:26.045Z,437.87
2023-03-15T02:11:26.033Z,439.30
2023-03-15T02:16:25.965Z,439.30
2023-03-15T02:21:25.897Z,435.05
2023-03-15T02:26:25.791Z,435.61
2023-03-15T02:31:25.812Z,440.16
2023-03-15T02:36:25.681Z,444.22
2023-03-15T02:41:25.620Z,452.87
2023-03-15T02:46:25.598Z,461.55
2023-03-15T02:51:25.496Z,462.82
2023-03-15T02:56:25.534Z,460.92
2023-03-15T03:01:25.392Z,456.55
2023-03-15T03:06:25.295Z,452.26
2023-03-15T03:11:25.239Z,453.17
2023-03-15T03:16:25.197Z,451.66
2023-03-15T03:21:25.106Z,454.09
2023-03-15T03:26:25.009Z,456.55
2023-03-15T03:31:25.010Z,454.70
2023-03-15T03:36:24.902Z,455.32
2023-03-15T03:41:24.848Z,454.09
2023-03-15T03:46:24.814Z,446.57
2023-03-15T03:51:24.785Z,443.64
2023-03-15T03:56:24.653Z,440.16
2023-03-15T04:01:24.596Z,440.16
2023-03-15T04:06:24.501Z,441.60
2023-03-15T04:11:24.484Z,448.35
2023-03-15T04:16:24.468Z,458.10
2023-03-15T04:21:24.346Z,463.14
2023-03-15T04:26:24.268Z,465.69
2023-03-15T04:31:24.252Z,463.14
2023-03-15T04:36:24.140Z,465.37
2023-03-15T04:41:24.078Z,460.92
2023-03-15T04:46:25.056Z,466.66
2023-03-15T04:51:23.958Z,471.23
2023-03-15T04:56:23.871Z,475.88
2023-03-15T05:01:23.809Z,481.32
2023-03-15T05:06:23.739Z,484.08
2023-03-15T05:11:23.712Z,484.78
2023-03-15T05:16:56.061Z,480.29
2023-03-15T05:21:48.431Z,476.89
2023-03-15T05:26:48.377Z,473.88
2023-03-15T05:31:48.335Z,467.63
2023-03-15T05:36:48.244Z,464.41
2023-03-15T05:41:48.182Z,467.96
2023-03-15T05:46:48.125Z,465.37
2023-03-15T05:51:48.044Z,462.18
2023-03-15T05:56:47.987Z,459.04
2023-03-15T06:01:47.929Z,459.35
2023-03-15T06:06:47.852Z,452.87
2023-03-15T06:11:47.774Z,447.46
2023-03-15T06:16:47.755Z,444.51
2023-03-15T06:21:47.668Z,443.05
2023-03-15T06:26:47.612Z,443.05
2023-03-15T06:31:47.519Z,444.80
2023-03-15T06:36:47.463Z,439.30
2023-03-15T06:41:47.398Z,438.16
2023-03-15T06:46:47.339Z,437.87
2023-03-15T06:51:47.270Z,440.45
2023-03-15T06:56:47.225Z,439.30
2023-03-15T07:01:47.176Z,439.01
2023-03-15T07:06:47.092Z,441.31
2023-03-15T07:11:47.017Z,443.05
2023-03-15T07:16:46.976Z,441.60
2023-03-15T07:21:46.898Z,434.49
2023-03-15T07:26:46.848Z,432.54
2023-03-15T07:31:46.765Z,432.81
2023-03-15T07:36:46.722Z,428.14
2023-03-15T07:41:46.613Z,425.44
2023-03-15T07:46:46.616Z,427.06
2023-03-15T07:51:46.512Z,419.36
2023-03-15T07:56:46.450Z,420.66
2023-03-15T08:01:46.400Z,412.94
2023-03-15T08:06:46.333Z,407.20
2023-03-15T08:11:46.246Z,402.34
2023-03-15T08:16:46.287Z,406.46
2023-03-15T08:21:46.126Z,405.24
2023-03-15T08:26:46.095Z,402.82
2023-03-15T08:31:46.082Z,402.10
2023-03-15T08:36:45.987Z,400.67
2023-03-15T08:41:45.878Z,397.36
2023-03-15T08:46:45.894Z,393.65
2023-03-15T08:51:45.714Z,391.59
2023-03-15T08:56:45.662Z,391.59
2023-03-15T09:01:45.584Z,391.37
2023-03-15T09:06:45.542Z,393.65
2023-03-15T09:11:45.488Z,400.91
2023-03-15T09:16:45.506Z,400.67
2023-03-15T09:21:45.336Z,408.93
2023-03-15T09:26:45.298Z,395.27
2023-03-15T09:31:45.200Z,391.37
2023-03-15T09:36:46.073Z,388.21
2023-03-15T09:41:45.054Z,387.10
2023-03-15T09:46:45.094Z,382.70
2023-03-15T09:51:45.027Z,382.27
2023-03-15T09:56:45.364Z,384.01
2023-03-15T10:01:44.969Z,381.40
2023-03-15T10:06:44.754Z,386.43
2023-03-15T10:11:44.692Z,373.02
2023-03-15T10:16:44.684Z,338.40
2023-03-15T10:21:44.584Z,304.55
2023-03-15T10:31:45.186Z,254.35
2023-03-15T10:36:44.349Z,246.24
2023-03-15T10:41:44.288Z,244.06
2023-03-15T10:46:44.365Z,248.45
2023-03-15T10:51:44.188Z,253.38
2023-03-15T10:56:44.089Z,263.02
2023-03-15T11:01:44.131Z,267.04
2023-03-15T11:06:43.945Z,260.54
2023-03-15T11:11:43.905Z,244.06
2023-03-15T11:16:43.822Z,235.74
2023-03-15T11:21:43.747Z,233.09
2023-03-15T11:26:43.692Z,237.94
2023-03-15T11:31:43.713Z,243.35
2023-03-15T11:36:43.607Z,251.46
2023-03-15T11:41:43.507Z,260.75
2023-03-15T11:46:43.416Z,269.65
2023-03-15T11:51:43.388Z,275.24
2023-03-15T11:56:43.292Z,278.01
2023-03-15T12:01:43.244Z,276.85
2023-03-15T12:06:43.168Z,269.21
2023-03-15T12:11:43.110Z,264.70
2023-03-15T12:16:43.070Z,267.04
2023-03-15T12:21:43.021Z,274.10
2023-03-15T12:26:42.903Z,280.83
2023-03-15T12:31:42.871Z,291.18
2023-03-15T12:36:42.765Z,303.43
2023-03-15T12:41:42.698Z,303.43
2023-03-15T12:46:42.608Z,303.15
2023-03-15T12:51:42.590Z,302.33
2023-03-15T12:56:42.539Z,308.80
2023-03-15T13:01:42.467Z,312.87
2023-03-15T13:06:42.368Z,323.24
2023-03-15T13:11:42.311Z,325.14
2023-03-15T13:16:42.290Z,333.97
2023-03-15T13:21:42.176Z,340.48
2023-03-15T13:26:42.101Z,341.54
2023-03-15T13:31:42.090Z,347.62
2023-03-15T13:36:42.168Z,351.67
2023-03-15T13:41:41.927Z,355.82
2023-03-15T13:46:41.968Z,357.35
2023-03-15T13:51:41.790Z,364.02
2023-03-15T13:56:49.310Z,370.11
2023-03-15T14:01:42.767Z,380.76
2023-03-15T14:06:41.548Z,388.44
2023-03-15T14:11:41.521Z,394.11
2023-03-15T14:16:57.317Z,387.99
2023-03-15T14:21:42.392Z,386.65
2023-03-15T14:26:41.311Z,385.55
2023-03-15T14:31:41.331Z,387.32
2023-03-15T14:36:41.192Z,388.66
2023-03-15T14:41:41.139Z,396.66
2023-03-15T14:46:41.060Z,396.20
2023-03-15T14:51:41.323Z,401.86
2023-03-15T14:56:42.659Z,406.46
2023-03-15T15:01:40.863Z,412.43
2023-03-15T15:06:40.847Z,416.76
2023-03-15T15:11:40.987Z,417.54
2023-03-15T15:16:40.673Z,414.71
2023-03-15T15:21:40.584Z,415.99
2023-03-15T15:26:40.524Z,413.19
2023-03-15T15:31:41.437Z,413.44
2023-03-15T15:36:40.375Z,413.44
2023-03-15T15:41:40.310Z,410.17
2023-03-15T15:46:40.240Z,414.20
2023-03-15T15:51:40.175Z,414.46
2023-03-15T15:56:40.133Z,408.68
2023-03-15T16:01:56.516Z,409.92
2023-03-15T16:06:40.979Z,411.17
2023-03-15T16:11:39.918Z,414.46
2023-03-15T16:16:39.835Z,413.44
2023-03-15T16:21:39.807Z,416.51
2023-03-15T16:26:39.731Z,421.19
2023-03-15T16:31:39.734Z,424.10
2023-03-15T16:36:39.592Z,422.77
2023-03-15T16:41:39.577Z,426.25
2023-03-15T16:46:39.476Z,424.37
2023-03-15T16:51:39.405Z,429.51
2023-03-15T16:56:39.334Z,432.54
2023-03-15T17:01:39.301Z,437.59
2023-03-15T17:06:40.112Z,437.87
2023-03-15T17:11:39.126Z,434.21
2023-03-15T17:16:39.094Z,430.88
2023-03-15T17:21:38.991Z,424.10
2023-03-15T17:26:38.946Z,417.28
2023-03-15T17:31:38.913Z,412.94
2023-03-15T17:36:38.819Z,411.93
2023-03-15T17:41:38.732Z,407.20
2023-03-15T17:46:38.773Z,407.20
2023-03-15T17:51:38.597Z,405.49
2023-03-15T17:56:38.569Z,408.68
2023-03-15T18:01:38.505Z,408.93
2023-03-15T18:06:38.420Z,410.92
2023-03-15T18:11:38.350Z,414.46
2023-03-15T18:16:38.361Z,414.20
2023-03-15T18:21:38.246Z,415.74
2023-03-15T18:26:38.195Z,419.10
2023-03-15T18:31:38.158Z,411.68
2023-03-15T18:36:38.038Z,413.70
2023-03-15T18:41:38.019Z,421.19
2023-03-15T18:46:37.945Z,417.80
2023-03-15T18:51:37.818Z,422.77
2023-03-15T18:56:37.768Z,423.04
2023-03-15T19:01:37.791Z,426.79
2023-03-15T19:06:37.659Z,427.87
2023-03-15T19:11:37.563Z,428.42
2023-03-15T19:16:37.555Z,429.51
2023-03-15T19:21:37.420Z,432.26
2023-03-15T19:26:37.400Z,435.61
2023-03-15T19:31:37.358Z,436.46
2023-03-15T19:36:37.246Z,444.80
2023-03-15T19:41:37.186Z,448.65
2023-03-15T19:46:37.210Z,452.87
2023-03-15T19:51:37.048Z,450.15
2023-03-15T19:56:37.019Z,449.85
2023-03-15T20:01:37.128Z,448.95
2023-03-15T20:06:37.063Z,451.36
2023-03-15T20:11:36.784Z,449.25
2023-03-15T20:16:36.811Z,449.25
2023-03-15T20:21:36.681Z,448.06
2023-03-15T20:26:36.666Z,444.80
2023-03-15T20:31:36.603Z,443.93
2023-03-15T20:36:36.582Z,441.60
2023-03-15T20:41:36.400Z,443.05
2023-03-15T20:46:36.421Z,442.47
2023-03-15T20:51:36.247Z,445.98
2023-03-15T20:56:36.257Z,444.80
2023-03-15T21:01:36.158Z,450.15
2023-03-15T21:06:36.112Z,453.79
2023-03-15T21:11:35.993Z,455.32
2023-03-15T21:16:36.055Z,456.55
2023-03-15T21:21:35.894Z,459.66
2023-03-15T21:26:35.813Z,461.55
2023-03-15T21:31:35.882Z,463.45
2023-03-15T21:36:35.718Z,466.98
2023-03-15T21:41:35.728Z,468.28
2023-03-15T21:46:35.638Z,471.56
2023-03-15T21:51:35.546Z,472.88
2023-03-15T21:56:35.440Z,470.24
2023-03-15T22:01:35.757Z,469.91
2023-03-15T22:06:35.331Z,471.23
2023-03-15T22:11:35.316Z,472.88
2023-03-15T22:16:35.249Z,475.21
2023-03-15T22:21:35.114Z,473.88
2023-03-15T22:26:35.099Z,477.57
2023-03-15T22:31:34.970Z,479.61
2023-03-15T22:36:34.952Z,477.91
2023-03-15T22:41:34.859Z,479.61
2023-03-15T22:46:35.267Z,479.61
2023-03-15T22:51:34.732Z,481.66
2023-03-15T22:56:34.678Z,481.32
2023-03-15T23:01:34.607Z,481.66
2023-03-15T23:06:34.562Z,479.26
2023-03-15T23:11:34.476Z,483.39
2023-03-15T23:16:34.423Z,486.17
2023-03-15T23:21:34.364Z,485.83
2023-03-15T23:26:34.297Z,483.39
2023-03-15T23:31:34.242Z,483.73
2023-03-15T23:36:34.166Z,485.13
2023-03-15T23:41:34.082Z,484.78
2023-03-15T23:46:34.050Z,485.83
2023-03-15T23:51:34.034Z,486.17
2023-03-15T23:56:33.964Z,486.17
